sensor_id;sensor_type;location;lat;lon;timestamp;temperature;humidity
26623;DHT22;14254;50.968;5.366;2022-08-19T00:00:18;19.70;99.90
26623;DHT22;14254;50.968;5.366;2022-08-19T00:02:45;19.70;99.90
26623;DHT22;14254;50.968;5.366;2022-08-19T00:05:12;19.80;99.90
26623;DHT22;14254;50.968;5.366;2022-08-19T00:07:39;19.70;99.90
26623;DHT22;14254;50.968;5.366;2022-08-19T00:10:06;19.70;99.90
26623;DHT22;14254;50.968;5.366;2022-08-19T00:12:34;19.60;99.90
26623;DHT22;14254;50.968;5.366;2022-08-19T00:15:00;19.60;99.90
26623;DHT22;14254;50.968;5.366;2022-08-19T00:17:25;19.50;99.90
26623;DHT22;14254;50.968;5.366;2022-08-19T00:19:51;19.10;99.90
26623;DHT22;14254;50.968;5.366;2022-08-19T00:22:17;19.00;99.90
26623;DHT22;14254;50.968;5.366;2022-08-19T00:24:46;18.90;99.90
26623;DHT22;14254;50.968;5.366;2022-08-19T00:27:12;19.00;99.90
26623;DHT22;14254;50.968;5.366;2022-08-19T00:29:38;19.10;99.90
26623;DHT22;14254;50.968;5.366;2022-08-19T00:32:05;19.20;99.90
26623;DHT22;14254;50.968;5.366;2022-08-19T00:34:31;19.10;99.90
26623;DHT22;14254;50.968;5.366;2022-08-19T00:36:57;19.00;99.90
26623;DHT22;14254;50.968;5.366;2022-08-19T00:39:25;19.10;99.90
26623;DHT22;14254;50.968;5.366;2022-08-19T00:41:51;19.00;99.90
26623;DHT22;14254;50.968;5.366;2022-08-19T00:44:23;19.00;99.90
26623;DHT22;14254;50.968;5.366;2022-08-19T00:46:51;19.20;99.90
26623;DHT22;14254;50.968;5.366;2022-08-19T00:52:02;19.10;99.90
26623;DHT22;14254;50.968;5.366;2022-08-19T00:54:30;19.10;99.90
26623;DHT22;14254;50.968;5.366;2022-08-19T00:56:57;19.20;99.90
26623;DHT22;14254;50.968;5.366;2022-08-19T00:59:25;19.20;99.90
26623;DHT22;14254;50.968;5.366;2022-08-19T01:01:51;19.20;99.90
26623;DHT22;14254;50.968;5.366;2022-08-19T01:04:17;19.20;99.90
26623;DHT22;14254;50.968;5.366;2022-08-19T01:06:43;19.00;99.90
26623;DHT22;14254;50.968;5.366;2022-08-19T01:09:09;18.90;99.90
26623;DHT22;14254;50.968;5.366;2022-08-19T01:11:41;18.80;99.90
26623;DHT22;14254;50.968;5.366;2022-08-19T01:14:09;18.80;99.90
26623;DHT22;14254;50.968;5.366;2022-08-19T01:16:36;18.80;99.90
26623;DHT22;14254;50.968;5.366;2022-08-19T01:19:03;19.00;99.90
26623;DHT22;14254;50.968;5.366;2022-08-19T01:21:40;19.10;99.90
26623;DHT22;14254;50.968;5.366;2022-08-19T01:24:07;19.00;99.90
26623;DHT22;14254;50.968;5.366;2022-08-19T01:26:39;19.10;99.90
26623;DHT22;14254;50.968;5.366;2022-08-19T01:29:07;19.20;99.90
26623;DHT22;14254;50.968;5.366;2022-08-19T01:31:33;19.10;99.90
26623;DHT22;14254;50.968;5.366;2022-08-19T01:34:00;19.10;99.90
26623;DHT22;14254;50.968;5.366;2022-08-19T01:38:57;19.10;99.90
26623;DHT22;14254;50.968;5.366;2022-08-19T01:41:25;19.00;99.90
26623;DHT22;14254;50.968;5.366;2022-08-19T01:43:51;18.90;99.90
26623;DHT22;14254;50.968;5.366;2022-08-19T01:46:18;18.90;99.90
26623;DHT22;14254;50.968;5.366;2022-08-19T01:48:45;18.80;99.90
26623;DHT22;14254;50.968;5.366;2022-08-19T01:51:12;18.80;99.90
26623;DHT22;14254;50.968;5.366;2022-08-19T01:53:38;18.80;99.90
26623;DHT22;14254;50.968;5.366;2022-08-19T01:56:06;18.80;99.90
26623;DHT22;14254;50.968;5.366;2022-08-19T01:58:38;18.80;99.90
26623;DHT22;14254;50.968;5.366;2022-08-19T02:01:07;18.80;99.90
26623;DHT22;14254;50.968;5.366;2022-08-19T02:03:32;18.70;99.90
26623;DHT22;14254;50.968;5.366;2022-08-19T02:06:01;18.70;99.90
26623;DHT22;14254;50.968;5.366;2022-08-19T02:08:29;18.60;99.90
26623;DHT22;14254;50.968;5.366;2022-08-19T02:10:55;18.50;99.90
26623;DHT22;14254;50.968;5.366;2022-08-19T02:13:21;18.40;99.90
26623;DHT22;14254;50.968;5.366;2022-08-19T02:15:47;18.30;99.90
26623;DHT22;14254;50.968;5.366;2022-08-19T02:18:13;18.30;99.90
26623;DHT22;14254;50.968;5.366;2022-08-19T02:20:41;18.20;99.90
26623;DHT22;14254;50.968;5.366;2022-08-19T02:23:08;18.10;99.90
26623;DHT22;14254;50.968;5.366;2022-08-19T02:25:33;18.10;99.90
26623;DHT22;14254;50.968;5.366;2022-08-19T02:27:59;18.10;99.90
26623;DHT22;14254;50.968;5.366;2022-08-19T02:30:25;17.90;99.90
26623;DHT22;14254;50.968;5.366;2022-08-19T02:32:51;17.80;99.90
26623;DHT22;14254;50.968;5.366;2022-08-19T02:35:18;17.80;99.90
26623;DHT22;14254;50.968;5.366;2022-08-19T02:37:44;17.70;99.90
26623;DHT22;14254;50.968;5.366;2022-08-19T02:40:30;17.90;99.90
26623;DHT22;14254;50.968;5.366;2022-08-19T02:42:59;18.10;99.90
26623;DHT22;14254;50.968;5.366;2022-08-19T02:45:25;18.00;99.90
26623;DHT22;14254;50.968;5.366;2022-08-19T02:47:50;18.20;99.90
26623;DHT22;14254;50.968;5.366;2022-08-19T02:50:16;18.20;99.90
26623;DHT22;14254;50.968;5.366;2022-08-19T02:52:42;18.20;99.90
26623;DHT22;14254;50.968;5.366;2022-08-19T02:55:08;18.30;99.90
26623;DHT22;14254;50.968;5.366;2022-08-19T02:57:34;18.40;99.90
26623;DHT22;14254;50.968;5.366;2022-08-19T03:00:03;18.40;99.90
26623;DHT22;14254;50.968;5.366;2022-08-19T03:02:29;18.50;99.90
26623;DHT22;14254;50.968;5.366;2022-08-19T03:04:56;18.50;99.90
26623;DHT22;14254;50.968;5.366;2022-08-19T03:07:21;18.40;99.90
26623;DHT22;14254;50.968;5.366;2022-08-19T03:09:47;18.40;99.90
26623;DHT22;14254;50.968;5.366;2022-08-19T03:12:13;18.40;99.90
26623;DHT22;14254;50.968;5.366;2022-08-19T03:14:39;18.30;99.90
26623;DHT22;14254;50.968;5.366;2022-08-19T03:17:05;18.30;99.90
26623;DHT22;14254;50.968;5.366;2022-08-19T03:19:31;18.30;99.90
26623;DHT22;14254;50.968;5.366;2022-08-19T03:21:59;18.30;99.90
26623;DHT22;14254;50.968;5.366;2022-08-19T03:24:25;18.20;99.90
26623;DHT22;14254;50.968;5.366;2022-08-19T03:26:54;18.20;99.90
26623;DHT22;14254;50.968;5.366;2022-08-19T03:29:25;18.10;99.90
26623;DHT22;14254;50.968;5.366;2022-08-19T03:31:50;18.10;99.90
26623;DHT22;14254;50.968;5.366;2022-08-19T03:34:29;18.10;99.90
26623;DHT22;14254;50.968;5.366;2022-08-19T03:36:56;18.10;99.90
26623;DHT22;14254;50.968;5.366;2022-08-19T03:39:24;18.00;99.90
26623;DHT22;14254;50.968;5.366;2022-08-19T03:41:51;17.90;99.90
26623;DHT22;14254;50.968;5.366;2022-08-19T03:44:20;17.80;99.90
26623;DHT22;14254;50.968;5.366;2022-08-19T03:46:49;17.70;99.90
26623;DHT22;14254;50.968;5.366;2022-08-19T03:49:16;17.70;99.90
26623;DHT22;14254;50.968;5.366;2022-08-19T03:51:42;17.60;99.90
26623;DHT22;14254;50.968;5.366;2022-08-19T03:54:10;17.70;99.90
26623;DHT22;14254;50.968;5.366;2022-08-19T03:56:38;17.60;99.90
26623;DHT22;14254;50.968;5.366;2022-08-19T03:59:05;17.60;99.90
26623;DHT22;14254;50.968;5.366;2022-08-19T04:01:32;17.40;99.90
26623;DHT22;14254;50.968;5.366;2022-08-19T04:03:59;17.30;99.90
26623;DHT22;14254;50.968;5.366;2022-08-19T04:06:43;17.30;99.90
26623;DHT22;14254;50.968;5.366;2022-08-19T04:09:10;17.30;99.90
26623;DHT22;14254;50.968;5.366;2022-08-19T04:11:41;17.40;99.90
26623;DHT22;14254;50.968;5.366;2022-08-19T04:14:09;17.30;99.90
26623;DHT22;14254;50.968;5.366;2022-08-19T04:16:35;17.20;99.90
26623;DHT22;14254;50.968;5.366;2022-08-19T04:19:02;17.20;99.90
26623;DHT22;14254;50.968;5.366;2022-08-19T04:21:29;17.20;99.90
26623;DHT22;14254;50.968;5.366;2022-08-19T04:23:55;17.20;99.90
26623;DHT22;14254;50.968;5.366;2022-08-19T04:26:24;17.10;99.90
26623;DHT22;14254;50.968;5.366;2022-08-19T04:28:51;17.00;99.90
26623;DHT22;14254;50.968;5.366;2022-08-19T04:31:22;17.00;99.90
26623;DHT22;14254;50.968;5.366;2022-08-19T04:34:00;17.00;99.90
26623;DHT22;14254;50.968;5.366;2022-08-19T04:36:33;17.10;99.90
26623;DHT22;14254;50.968;5.366;2022-08-19T04:39:00;17.20;99.90
26623;DHT22;14254;50.968;5.366;2022-08-19T04:41:26;17.10;99.90
26623;DHT22;14254;50.968;5.366;2022-08-19T04:44:12;17.20;99.90
26623;DHT22;14254;50.968;5.366;2022-08-19T04:46:38;17.20;99.90
26623;DHT22;14254;50.968;5.366;2022-08-19T04:49:06;17.00;99.90
26623;DHT22;14254;50.968;5.366;2022-08-19T04:51:33;17.00;99.90
26623;DHT22;14254;50.968;5.366;2022-08-19T04:54:01;17.00;99.90
26623;DHT22;14254;50.968;5.366;2022-08-19T04:56:27;17.00;99.90
26623;DHT22;14254;50.968;5.366;2022-08-19T04:58:54;17.00;99.90
26623;DHT22;14254;50.968;5.366;2022-08-19T05:01:26;16.90;99.90
26623;DHT22;14254;50.968;5.366;2022-08-19T05:03:54;16.90;99.90
26623;DHT22;14254;50.968;5.366;2022-08-19T05:06:21;16.90;99.90
26623;DHT22;14254;50.968;5.366;2022-08-19T05:08:48;16.90;99.90
26623;DHT22;14254;50.968;5.366;2022-08-19T05:11:23;17.00;99.90
26623;DHT22;14254;50.968;5.366;2022-08-19T05:13:49;17.10;99.90
26623;DHT22;14254;50.968;5.366;2022-08-19T05:16:17;17.10;99.90
26623;DHT22;14254;50.968;5.366;2022-08-19T05:18:43;17.10;99.90
26623;DHT22;14254;50.968;5.366;2022-08-19T05:21:28;17.10;99.90
26623;DHT22;14254;50.968;5.366;2022-08-19T05:24:12;17.10;99.90
26623;DHT22;14254;50.968;5.366;2022-08-19T05:26:44;17.00;99.90
26623;DHT22;14254;50.968;5.366;2022-08-19T05:29:20;16.80;99.90
26623;DHT22;14254;50.968;5.366;2022-08-19T05:31:47;16.80;99.90
26623;DHT22;14254;50.968;5.366;2022-08-19T05:34:15;16.90;99.90
26623;DHT22;14254;50.968;5.366;2022-08-19T05:36:43;17.10;99.90
26623;DHT22;14254;50.968;5.366;2022-08-19T05:39:13;17.30;99.90
26623;DHT22;14254;50.968;5.366;2022-08-19T05:41:42;17.40;99.90
26623;DHT22;14254;50.968;5.366;2022-08-19T05:44:08;17.60;99.90
26623;DHT22;14254;50.968;5.366;2022-08-19T05:46:36;17.70;99.90
26623;DHT22;14254;50.968;5.366;2022-08-19T05:49:03;17.90;99.90
26623;DHT22;14254;50.968;5.366;2022-08-19T05:51:30;17.90;99.90
26623;DHT22;14254;50.968;5.366;2022-08-19T05:53:57;18.00;99.90
26623;DHT22;14254;50.968;5.366;2022-08-19T05:56:23;18.20;99.90
26623;DHT22;14254;50.968;5.366;2022-08-19T05:58:49;18.30;99.90
26623;DHT22;14254;50.968;5.366;2022-08-19T06:01:17;18.30;99.90
26623;DHT22;14254;50.968;5.366;2022-08-19T06:03:44;18.40;99.90
26623;DHT22;14254;50.968;5.366;2022-08-19T06:06:11;18.40;99.90
26623;DHT22;14254;50.968;5.366;2022-08-19T06:08:37;18.50;99.90
26623;DHT22;14254;50.968;5.366;2022-08-19T06:11:25;18.50;99.90
26623;DHT22;14254;50.968;5.366;2022-08-19T06:13:59;18.70;99.90
26623;DHT22;14254;50.968;5.366;2022-08-19T06:16:25;18.80;99.90
26623;DHT22;14254;50.968;5.366;2022-08-19T06:18:52;18.80;99.90
26623;DHT22;14254;50.968;5.366;2022-08-19T06:21:23;18.80;99.90
26623;DHT22;14254;50.968;5.366;2022-08-19T06:23:50;18.90;99.90
26623;DHT22;14254;50.968;5.366;2022-08-19T06:26:18;18.80;99.90
26623;DHT22;14254;50.968;5.366;2022-08-19T06:28:44;18.80;99.90
26623;DHT22;14254;50.968;5.366;2022-08-19T06:31:16;18.90;99.90
26623;DHT22;14254;50.968;5.366;2022-08-19T06:33:43;18.80;99.90
26623;DHT22;14254;50.968;5.366;2022-08-19T06:36:37;18.90;99.90
26623;DHT22;14254;50.968;5.366;2022-08-19T06:39:13;18.90;99.90
26623;DHT22;14254;50.968;5.366;2022-08-19T06:41:44;18.70;99.90
26623;DHT22;14254;50.968;5.366;2022-08-19T06:44:11;18.80;99.90
26623;DHT22;14254;50.968;5.366;2022-08-19T06:46:39;18.80;99.90
26623;DHT22;14254;50.968;5.366;2022-08-19T06:49:05;18.90;99.90
26623;DHT22;14254;50.968;5.366;2022-08-19T06:51:36;19.10;99.90
26623;DHT22;14254;50.968;5.366;2022-08-19T06:54:01;19.30;99.90
26623;DHT22;14254;50.968;5.366;2022-08-19T06:56:29;19.40;99.90
26623;DHT22;14254;50.968;5.366;2022-08-19T06:58:57;19.30;99.90
26623;DHT22;14254;50.968;5.366;2022-08-19T07:01:23;19.30;99.90
26623;DHT22;14254;50.968;5.366;2022-08-19T07:03:49;19.30;99.90
26623;DHT22;14254;50.968;5.366;2022-08-19T07:06:17;19.30;99.90
26623;DHT22;14254;50.968;5.366;2022-08-19T07:08:44;19.30;99.90
26623;DHT22;14254;50.968;5.366;2022-08-19T07:11:13;19.40;99.90
26623;DHT22;14254;50.968;5.366;2022-08-19T07:13:40;19.60;99.90
26623;DHT22;14254;50.968;5.366;2022-08-19T07:16:11;19.60;99.90
26623;DHT22;14254;50.968;5.366;2022-08-19T07:18:38;19.80;99.90
26623;DHT22;14254;50.968;5.366;2022-08-19T07:21:09;20.00;99.90
26623;DHT22;14254;50.968;5.366;2022-08-19T07:23:35;20.10;99.90
26623;DHT22;14254;50.968;5.366;2022-08-19T07:26:10;20.30;99.90
26623;DHT22;14254;50.968;5.366;2022-08-19T07:28:37;20.40;99.90
26623;DHT22;14254;50.968;5.366;2022-08-19T07:31:08;20.60;99.90
26623;DHT22;14254;50.968;5.366;2022-08-19T07:33:35;20.80;99.90
26623;DHT22;14254;50.968;5.366;2022-08-19T07:36:04;20.80;99.90
26623;DHT22;14254;50.968;5.366;2022-08-19T07:38:31;20.90;99.90
26623;DHT22;14254;50.968;5.366;2022-08-19T07:40:57;20.90;99.90
26623;DHT22;14254;50.968;5.366;2022-08-19T07:43:23;21.30;99.90
26623;DHT22;14254;50.968;5.366;2022-08-19T07:45:51;21.50;99.90
26623;DHT22;14254;50.968;5.366;2022-08-19T07:48:18;21.60;99.90
26623;DHT22;14254;50.968;5.366;2022-08-19T07:50:44;21.60;99.90
26623;DHT22;14254;50.968;5.366;2022-08-19T07:53:10;21.60;99.90
26623;DHT22;14254;50.968;5.366;2022-08-19T07:55:37;21.80;99.90
26623;DHT22;14254;50.968;5.366;2022-08-19T07:58:03;21.80;99.90
26623;DHT22;14254;50.968;5.366;2022-08-19T08:00:30;21.80;99.90
26623;DHT22;14254;50.968;5.366;2022-08-19T08:02:56;21.90;99.90
26623;DHT22;14254;50.968;5.366;2022-08-19T08:05:23;22.00;99.90
26623;DHT22;14254;50.968;5.366;2022-08-19T08:08:07;21.90;99.90
26623;DHT22;14254;50.968;5.366;2022-08-19T08:10:51;21.80;99.90
26623;DHT22;14254;50.968;5.366;2022-08-19T08:13:17;21.90;99.90
26623;DHT22;14254;50.968;5.366;2022-08-19T08:15:43;22.00;99.90
26623;DHT22;14254;50.968;5.366;2022-08-19T08:18:11;22.40;99.90
26623;DHT22;14254;50.968;5.366;2022-08-19T08:20:36;22.60;99.90
26623;DHT22;14254;50.968;5.366;2022-08-19T08:23:03;22.80;99.90
26623;DHT22;14254;50.968;5.366;2022-08-19T08:25:47;22.80;99.90
26623;DHT22;14254;50.968;5.366;2022-08-19T08:28:14;23.00;99.90
26623;DHT22;14254;50.968;5.366;2022-08-19T08:30:40;22.80;99.90
26623;DHT22;14254;50.968;5.366;2022-08-19T08:33:09;22.70;99.90
26623;DHT22;14254;50.968;5.366;2022-08-19T08:35:35;22.40;99.90
26623;DHT22;14254;50.968;5.366;2022-08-19T08:38:02;22.40;99.90
26623;DHT22;14254;50.968;5.366;2022-08-19T08:46:08;22.80;99.90
26623;DHT22;14254;50.968;5.366;2022-08-19T08:48:58;23.00;99.90
26623;DHT22;14254;50.968;5.366;2022-08-19T08:51:47;23.00;99.90
26623;DHT22;14254;50.968;5.366;2022-08-19T08:54:19;23.10;99.90
26623;DHT22;14254;50.968;5.366;2022-08-19T08:56:48;23.30;99.90
26623;DHT22;14254;50.968;5.366;2022-08-19T08:59:30;23.60;99.90
26623;DHT22;14254;50.968;5.366;2022-08-19T09:01:57;23.70;99.90
26623;DHT22;14254;50.968;5.366;2022-08-19T09:04:23;23.40;99.90
26623;DHT22;14254;50.968;5.366;2022-08-19T09:07:25;23.10;99.90
26623;DHT22;14254;50.968;5.366;2022-08-19T09:09:45;22.80;99.90
26623;DHT22;14254;50.968;5.366;2022-08-19T09:13:07;22.60;99.90
26623;DHT22;14254;50.968;5.366;2022-08-19T09:15:14;22.70;99.90
26623;DHT22;14254;50.968;5.366;2022-08-19T09:17:41;22.70;99.90
26623;DHT22;14254;50.968;5.366;2022-08-19T09:22:41;22.70;99.90
26623;DHT22;14254;50.968;5.366;2022-08-19T09:25:13;22.80;99.90
26623;DHT22;14254;50.968;5.366;2022-08-19T09:27:40;23.20;99.90
26623;DHT22;14254;50.968;5.366;2022-08-19T09:30:08;23.30;99.90
26623;DHT22;14254;50.968;5.366;2022-08-19T09:32:34;23.40;99.90
26623;DHT22;14254;50.968;5.366;2022-08-19T09:34:59;23.60;99.90
26623;DHT22;14254;50.968;5.366;2022-08-19T09:37:27;23.60;99.90
26623;DHT22;14254;50.968;5.366;2022-08-19T09:39:53;23.60;99.90
26623;DHT22;14254;50.968;5.366;2022-08-19T09:42:19;23.70;99.90
26623;DHT22;14254;50.968;5.366;2022-08-19T09:44:45;23.90;99.90
26623;DHT22;14254;50.968;5.366;2022-08-19T09:47:13;24.20;99.90
26623;DHT22;14254;50.968;5.366;2022-08-19T09:49:39;24.40;99.90
26623;DHT22;14254;50.968;5.366;2022-08-19T09:52:09;24.30;99.90
26623;DHT22;14254;50.968;5.366;2022-08-19T09:54:37;24.60;99.90
26623;DHT22;14254;50.968;5.366;2022-08-19T09:57:03;24.70;99.90
26623;DHT22;14254;50.968;5.366;2022-08-19T09:59:29;24.40;99.90
26623;DHT22;14254;50.968;5.366;2022-08-19T10:01:55;23.80;99.90
26623;DHT22;14254;50.968;5.366;2022-08-19T10:04:21;23.70;99.90
26623;DHT22;14254;50.968;5.366;2022-08-19T10:06:49;24.00;99.90
26623;DHT22;14254;50.968;5.366;2022-08-19T10:09:17;24.10;99.90
26623;DHT22;14254;50.968;5.366;2022-08-19T10:11:44;24.20;99.90
26623;DHT22;14254;50.968;5.366;2022-08-19T10:14:15;24.20;99.90
26623;DHT22;14254;50.968;5.366;2022-08-19T10:16:42;24.60;99.90
26623;DHT22;14254;50.968;5.366;2022-08-19T10:19:09;25.20;99.90
26623;DHT22;14254;50.968;5.366;2022-08-19T10:21:35;25.70;99.90
26623;DHT22;14254;50.968;5.366;2022-08-19T10:24:04;26.20;99.90
26623;DHT22;14254;50.968;5.366;2022-08-19T10:26:34;26.40;99.90
26623;DHT22;14254;50.968;5.366;2022-08-19T10:29:01;26.40;99.90
26623;DHT22;14254;50.968;5.366;2022-08-19T10:31:30;26.40;99.90
26623;DHT22;14254;50.968;5.366;2022-08-19T10:33:56;26.50;99.90
26623;DHT22;14254;50.968;5.366;2022-08-19T10:36:32;26.60;99.90
26623;DHT22;14254;50.968;5.366;2022-08-19T10:39:00;26.60;99.90
26623;DHT22;14254;50.968;5.366;2022-08-19T10:41:33;26.60;99.90
26623;DHT22;14254;50.968;5.366;2022-08-19T10:44:02;26.30;99.90
26623;DHT22;14254;50.968;5.366;2022-08-19T10:46:29;26.40;99.90
26623;DHT22;14254;50.968;5.366;2022-08-19T10:49:01;26.80;99.90
26623;DHT22;14254;50.968;5.366;2022-08-19T10:51:27;27.30;99.90
26623;DHT22;14254;50.968;5.366;2022-08-19T10:54:12;27.70;99.90
26623;DHT22;14254;50.968;5.366;2022-08-19T10:56:37;28.10;99.90
26623;DHT22;14254;50.968;5.366;2022-08-19T10:59:27;28.00;99.90
26623;DHT22;14254;50.968;5.366;2022-08-19T11:02:01;28.00;99.90
26623;DHT22;14254;50.968;5.366;2022-08-19T11:04:27;28.00;99.90
26623;DHT22;14254;50.968;5.366;2022-08-19T11:06:53;27.90;99.90
26623;DHT22;14254;50.968;5.366;2022-08-19T11:09:21;27.90;99.90
26623;DHT22;14254;50.968;5.366;2022-08-19T11:11:50;28.00;99.90
26623;DHT22;14254;50.968;5.366;2022-08-19T11:14:17;28.10;99.90
26623;DHT22;14254;50.968;5.366;2022-08-19T11:16:45;28.40;99.90
26623;DHT22;14254;50.968;5.366;2022-08-19T11:19:12;28.10;99.90
26623;DHT22;14254;50.968;5.366;2022-08-19T11:21:41;27.70;99.90
26623;DHT22;14254;50.968;5.366;2022-08-19T11:24:16;27.50;99.90
26623;DHT22;14254;50.968;5.366;2022-08-19T11:26:44;27.30;99.90
26623;DHT22;14254;50.968;5.366;2022-08-19T11:29:11;27.70;99.90
26623;DHT22;14254;50.968;5.366;2022-08-19T11:31:43;28.10;99.90
26623;DHT22;14254;50.968;5.366;2022-08-19T11:34:12;28.60;99.90
26623;DHT22;14254;50.968;5.366;2022-08-19T11:36:41;28.60;99.90
26623;DHT22;14254;50.968;5.366;2022-08-19T11:39:09;28.80;99.90
26623;DHT22;14254;50.968;5.366;2022-08-19T11:41:35;29.30;99.90
26623;DHT22;14254;50.968;5.366;2022-08-19T11:44:01;30.10;99.60
26623;DHT22;14254;50.968;5.366;2022-08-19T11:46:29;31.80;96.20
26623;DHT22;14254;50.968;5.366;2022-08-19T11:48:58;33.10;93.40
26623;DHT22;14254;50.968;5.366;2022-08-19T11:51:27;33.30;92.10
26623;DHT22;14254;50.968;5.366;2022-08-19T11:53:54;34.00;90.90
26623;DHT22;14254;50.968;5.366;2022-08-19T11:56:21;33.60;91.00
26623;DHT22;14254;50.968;5.366;2022-08-19T11:58:48;35.30;87.80
26623;DHT22;14254;50.968;5.366;2022-08-19T12:01:18;35.00;86.40
26623;DHT22;14254;50.968;5.366;2022-08-19T12:03:46;35.20;87.40
26623;DHT22;14254;50.968;5.366;2022-08-19T12:06:19;33.90;88.40
26623;DHT22;14254;50.968;5.366;2022-08-19T12:08:45;33.10;90.20
26623;DHT22;14254;50.968;5.366;2022-08-19T12:11:13;32.90;90.50
26623;DHT22;14254;50.968;5.366;2022-08-19T12:13:39;32.50;91.30
26623;DHT22;14254;50.968;5.366;2022-08-19T12:16:10;31.80;92.60
26623;DHT22;14254;50.968;5.366;2022-08-19T12:18:38;31.50;92.80
26623;DHT22;14254;50.968;5.366;2022-08-19T12:21:04;31.10;94.10
26623;DHT22;14254;50.968;5.366;2022-08-19T12:23:30;30.50;94.80
26623;DHT22;14254;50.968;5.366;2022-08-19T12:25:56;30.20;95.60
26623;DHT22;14254;50.968;5.366;2022-08-19T12:28:24;29.80;96.50
26623;DHT22;14254;50.968;5.366;2022-08-19T12:30:50;29.80;96.90
26623;DHT22;14254;50.968;5.366;2022-08-19T12:33:17;30.30;96.90
26623;DHT22;14254;50.968;5.366;2022-08-19T12:35:44;30.80;95.70
26623;DHT22;14254;50.968;5.366;2022-08-19T12:38:12;32.40;93.40
26623;DHT22;14254;50.968;5.366;2022-08-19T12:40:38;31.90;93.90
26623;DHT22;14254;50.968;5.366;2022-08-19T12:43:06;30.60;95.80
26623;DHT22;14254;50.968;5.366;2022-08-19T12:45:32;29.60;97.20
26623;DHT22;14254;50.968;5.366;2022-08-19T12:47:58;28.80;99.00
26623;DHT22;14254;50.968;5.366;2022-08-19T12:50:23;28.40;99.90
26623;DHT22;14254;50.968;5.366;2022-08-19T12:52:49;27.90;99.90
26623;DHT22;14254;50.968;5.366;2022-08-19T12:55:15;27.70;99.90
26623;DHT22;14254;50.968;5.366;2022-08-19T12:57:42;27.60;99.90
26623;DHT22;14254;50.968;5.366;2022-08-19T13:00:09;27.40;99.90
26623;DHT22;14254;50.968;5.366;2022-08-19T13:02:37;27.40;99.90
26623;DHT22;14254;50.968;5.366;2022-08-19T13:05:04;27.40;99.90
26623;DHT22;14254;50.968;5.366;2022-08-19T13:07:32;27.10;99.90
26623;DHT22;14254;50.968;5.366;2022-08-19T13:09:58;26.80;99.90
26623;DHT22;14254;50.968;5.366;2022-08-19T13:12:24;26.70;99.90
26623;DHT22;14254;50.968;5.366;2022-08-19T13:14:52;26.70;99.90
26623;DHT22;14254;50.968;5.366;2022-08-19T13:17:18;26.90;99.90
26623;DHT22;14254;50.968;5.366;2022-08-19T13:19:44;27.10;99.90
26623;DHT22;14254;50.968;5.366;2022-08-19T13:22:10;27.30;99.90
26623;DHT22;14254;50.968;5.366;2022-08-19T13:24:37;27.30;99.90
26623;DHT22;14254;50.968;5.366;2022-08-19T13:27:03;27.10;99.90
26623;DHT22;14254;50.968;5.366;2022-08-19T13:29:29;26.90;99.90
26623;DHT22;14254;50.968;5.366;2022-08-19T13:32:13;27.00;99.90
26623;DHT22;14254;50.968;5.366;2022-08-19T13:34:57;26.80;99.90
26623;DHT22;14254;50.968;5.366;2022-08-19T13:37:22;26.70;99.90
26623;DHT22;14254;50.968;5.366;2022-08-19T13:40:08;26.40;99.90
26623;DHT22;14254;50.968;5.366;2022-08-19T13:42:37;26.50;99.90
26623;DHT22;14254;50.968;5.366;2022-08-19T13:45:03;26.40;99.90
26623;DHT22;14254;50.968;5.366;2022-08-19T13:47:30;26.30;99.90
26623;DHT22;14254;50.968;5.366;2022-08-19T13:49:55;26.20;99.90
26623;DHT22;14254;50.968;5.366;2022-08-19T13:52:21;26.30;99.90
26623;DHT22;14254;50.968;5.366;2022-08-19T13:54:47;26.40;99.90
26623;DHT22;14254;50.968;5.366;2022-08-19T13:57:15;26.50;99.90
26623;DHT22;14254;50.968;5.366;2022-08-19T13:59:40;26.90;99.90
26623;DHT22;14254;50.968;5.366;2022-08-19T14:02:06;27.20;99.90
26623;DHT22;14254;50.968;5.366;2022-08-19T14:04:32;27.40;99.90
26623;DHT22;14254;50.968;5.366;2022-08-19T14:06:57;27.40;99.90
26623;DHT22;14254;50.968;5.366;2022-08-19T14:09:23;27.60;99.90
26623;DHT22;14254;50.968;5.366;2022-08-19T14:11:49;27.60;99.90
26623;DHT22;14254;50.968;5.366;2022-08-19T14:14:16;27.80;99.90
26623;DHT22;14254;50.968;5.366;2022-08-19T14:16:41;28.10;99.90
26623;DHT22;14254;50.968;5.366;2022-08-19T14:19:08;28.50;99.90
26623;DHT22;14254;50.968;5.366;2022-08-19T14:21:33;29.30;99.90
26623;DHT22;14254;50.968;5.366;2022-08-19T14:24:01;30.10;99.90
26623;DHT22;14254;50.968;5.366;2022-08-19T14:26:27;30.30;99.90
26623;DHT22;14254;50.968;5.366;2022-08-19T14:28:52;30.60;99.90
26623;DHT22;14254;50.968;5.366;2022-08-19T14:31:19;32.10;98.60
26623;DHT22;14254;50.968;5.366;2022-08-19T14:33:46;32.30;97.30
26623;DHT22;14254;50.968;5.366;2022-08-19T14:36:12;33.30;95.80
26623;DHT22;14254;50.968;5.366;2022-08-19T14:38:38;33.80;93.70
26623;DHT22;14254;50.968;5.366;2022-08-19T14:41:17;33.50;94.00
26623;DHT22;14254;50.968;5.366;2022-08-19T14:43:49;33.40;94.20
26623;DHT22;14254;50.968;5.366;2022-08-19T14:46:16;33.30;94.50
26623;DHT22;14254;50.968;5.366;2022-08-19T14:48:43;33.30;93.60
26623;DHT22;14254;50.968;5.366;2022-08-19T14:51:09;32.60;94.40
26623;DHT22;14254;50.968;5.366;2022-08-19T14:53:35;32.20;94.80
26623;DHT22;14254;50.968;5.366;2022-08-19T14:56:01;31.70;95.20
26623;DHT22;14254;50.968;5.366;2022-08-19T14:58:31;31.10;96.40
26623;DHT22;14254;50.968;5.366;2022-08-19T15:01:01;32.20;95.40
26623;DHT22;14254;50.968;5.366;2022-08-19T15:03:27;33.90;92.90
26623;DHT22;14254;50.968;5.366;2022-08-19T15:05:53;35.80;90.40
26623;DHT22;14254;50.968;5.366;2022-08-19T15:08:19;37.40;86.30
26623;DHT22;14254;50.968;5.366;2022-08-19T15:10:46;37.30;83.80
26623;DHT22;14254;50.968;5.366;2022-08-19T15:13:13;37.30;82.90
26623;DHT22;14254;50.968;5.366;2022-08-19T15:15:38;36.10;84.00
26623;DHT22;14254;50.968;5.366;2022-08-19T15:18:04;34.70;87.00
26623;DHT22;14254;50.968;5.366;2022-08-19T15:20:31;33.60;90.30
26623;DHT22;14254;50.968;5.366;2022-08-19T15:22:57;32.30;92.00
26623;DHT22;14254;50.968;5.366;2022-08-19T15:25:24;31.10;93.20
26623;DHT22;14254;50.968;5.366;2022-08-19T15:27:49;30.30;94.60
26623;DHT22;14254;50.968;5.366;2022-08-19T15:30:22;29.80;96.20
26623;DHT22;14254;50.968;5.366;2022-08-19T15:32:47;29.40;97.30
26623;DHT22;14254;50.968;5.366;2022-08-19T15:35:13;29.10;97.90
26623;DHT22;14254;50.968;5.366;2022-08-19T15:37:39;28.80;99.00
26623;DHT22;14254;50.968;5.366;2022-08-19T15:40:06;28.30;99.90
26623;DHT22;14254;50.968;5.366;2022-08-19T15:42:35;28.10;99.90
26623;DHT22;14254;50.968;5.366;2022-08-19T15:45:02;28.20;99.90
26623;DHT22;14254;50.968;5.366;2022-08-19T15:47:29;28.80;99.90
26623;DHT22;14254;50.968;5.366;2022-08-19T15:49:55;28.90;99.90